Time;durP1;ratioP1;P1;durP2;ratioP2;P2;SDS_P1;SDS_P2;PMS_P1;PMS_P2;Temp;Humidity;BMP_temperature;BMP_pressure;BME280_temperature;BME280_humidity;BME280_pressure;Samples;Min_cycle;Max_cycle;Signal;HPM_P1;HPM_P2
2022/06/12 00:03:23;;;;;;;1.33;0.80;;;;;;;;;;21145528;28;20231;-76
2022/06/12 00:13:27;;;;;;;1.13;0.73;;;;;;;;;;21140503;28;20231;-76
2022/06/12 00:23:29;;;;;;;0.77;0.65;;;;;;;;;;21148219;28;20234;-75
2022/06/12 00:33:31;;;;;;;2.13;0.73;;;23.30;99.90;;;;;;21162980;28;20219;-75
2022/06/12 00:43:33;;;;;;;1.92;0.68;;;;;;;;;;21128897;28;20233;-75
2022/06/12 00:53:41;;;;;;;1.08;0.70;;;;;;;;;;21161281;28;20214;-75
2022/06/12 01:14:06;;;;;;;1.77;0.70;;;;;;;;;;21159026;28;20253;-75
2022/06/12 01:24:11;;;;;;;1.77;0.90;;;;;;;;;;21159011;28;20261;-76
2022/06/12 01:34:22;;;;;;;1.63;0.75;;;;;;;;;;21163135;22;20717;-77
2022/06/12 01:44:39;;;;;;;1.65;0.90;;;22.40;99.90;;;;;;21021695;28;20672;-77
2022/06/12 01:55:19;;;;;;;1.75;0.80;;;22.50;99.90;;;;;;20983590;28;20288;-77
2022/06/12 02:05:22;;;;;;;1.70;0.77;;;;;;;;;;21082448;28;20266;-78
2022/06/12 02:15:26;;;;;;;2.97;1.00;;;;;;;;;;21138060;28;20561;-76
2022/06/12 02:25:30;;;;;;;1.58;0.80;;;;;;;;;;21136837;28;20204;-76
2022/06/12 02:35:46;;;;;;;2.58;1.10;;;21.40;99.90;;;;;;21155692;28;20260;-76
2022/06/12 02:45:51;;;;;;;2.47;1.38;;;;;;;;;;21155003;28;20763;-75
2022/06/12 02:55:54;;;;;;;3.50;0.90;;;;;;;;;;21119841;28;20853;-75
2022/06/12 03:05:58;;;;;;;1.77;1.08;;;;;;;;;;21135491;28;20251;-78
2022/06/12 03:16:09;;;;;;;2.97;1.05;;;;;;;;;;21151186;28;20272;-77
2022/06/12 03:26:34;;;;;;;3.28;1.10;;;21.60;99.90;;;;;;21115054;28;20259;-76
2022/06/12 03:36:45;;;;;;;0.95;0.73;;;21.50;99.90;;;;;;21056057;28;20210;-77
2022/06/12 03:46:53;;;;;;;1.20;0.80;;;;;;;;;;21064746;28;20215;-76
2022/06/12 04:07:24;;;;;;;2.20;1.08;;;21.20;99.90;;;;;;21080364;28;20596;-75
2022/06/12 04:17:26;;;;;;;2.85;1.00;;;;;;;;;;21081796;28;20208;-75
2022/06/12 04:27:28;;;;;;;1.33;0.70;;;;;;;;;;21062262;28;20230;-75
2022/06/12 04:37:31;;;;;;;1.07;0.70;;;;;;;;;;21079539;28;20867;-77
2022/06/12 04:47:34;;;;;;;1.38;0.73;;;;;;;;;;21094382;28;20695;-77
2022/06/12 04:57:37;;;;;;;3.37;0.90;;;;;;;;;;21140288;28;20235;-76
2022/06/12 05:07:39;;;;;;;3.45;1.00;;;;;;;;;;21158052;28;20678;-76
2022/06/12 05:17:42;;;;;;;1.60;0.98;;;21.50;99.90;;;;;;21126372;28;20218;-76
2022/06/12 05:28:14;;;;;;;2.00;1.00;;;21.70;99.90;;;;;;21136306;28;20208;-76
2022/06/12 05:38:16;;;;;;;3.28;2.10;;;;;;;;;;21095117;28;20213;-76
2022/06/12 05:48:19;;;;;;;2.13;1.70;;;21.80;99.90;;;;;;21132433;28;20228;-76
2022/06/12 05:58:23;;;;;;;3.30;1.00;;;21.90;99.90;;;;;;21069867;28;20271;-76
2022/06/12 06:08:25;;;;;;;1.10;0.65;;;;;;;;;;21057123;28;20195;-77
2022/06/12 06:18:27;;;;;;;1.48;0.85;;;;;;;;;;21048329;28;20266;-79
2022/06/12 06:28:30;;;;;;;1.50;0.80;;;;;;;;;;21051901;28;20220;-77
2022/06/12 06:38:32;;;;;;;1.35;0.70;;;;;;;;;;21056880;28;20236;-77
2022/06/12 06:48:33;;;;;;;1.27;0.57;;;;;;;;;;21090525;28;20211;-77
2022/06/12 06:58:35;;;;;;;0.45;0.30;;;;;;;;;;21142961;28;20244;-77
2022/06/12 07:08:37;;;;;;;1.40;0.63;;;23.20;99.90;;;;;;21159788;28;20268;-78
2022/06/12 07:18:42;;;;;;;4.28;0.73;;;;;;;;;;21151409;28;20713;-78
2022/06/12 07:28:44;;;;;;;1.05;0.57;;;;;;;;;;21168049;28;20211;-73
2022/06/12 07:38:49;;;;;;;1.42;0.73;;;24.00;99.90;;;;;;21150261;28;20215;-70
2022/06/12 07:48:52;;;;;;;1.60;0.82;;;;;;;;;;21103482;28;20224;-74
2022/06/12 07:58:54;;;;;;;0.95;0.60;;;;;;;;;;21086386;28;20218;-69
2022/06/12 08:08:57;;;;;;;1.33;0.82;;;24.60;99.90;;;;;;21105057;28;20678;-70
2022/06/12 08:19:00;;;;;;;2.13;0.82;;;24.70;99.90;;;;;;21097347;28;20227;-74
2022/06/12 08:29:04;;;;;;;3.22;0.90;;;;;;;;;;21107781;28;20204;-69
2022/06/12 08:39:07;;;;;;;1.25;0.80;;;25.10;99.90;;;;;;21145607;28;20214;-70
2022/06/12 08:49:21;;;;;;;3.17;1.08;;;25.60;99.90;;;;;;21107480;28;20269;-69
2022/06/12 08:59:26;;;;;;;1.63;0.70;;;;;;;;;;21137317;28;20214;-70
2022/06/12 09:09:35;;;;;;;2.30;0.75;;;25.90;99.90;;;;;;21142779;28;20210;-68
2022/06/12 09:19:39;;;;;;;1.98;0.90;;;;;;;;;;21142016;28;20211;-68
2022/06/12 09:30:02;;;;;;;1.00;0.68;;;;;;;;;;21130851;28;20226;-69
2022/06/12 09:40:08;;;;;;;1.58;0.65;;;;;;;;;;21106613;28;20223;-70
2022/06/12 09:50:27;;;;;;;1.00;0.60;;;26.40;99.90;;;;;;21144377;28;20219;-71
2022/06/12 10:00:29;;;;;;;1.23;0.75;;;;;;;;;;21137564;28;20770;-70
2022/06/12 10:10:39;;;;;;;1.60;0.55;;;27.10;99.90;;;;;;21130903;28;20199;-69
2022/06/12 10:20:45;;;;;;;1.08;0.50;;;27.40;99.90;;;;;;21069131;28;20225;-69
2022/06/12 10:30:58;;;;;;;2.55;0.57;;;;;;;;;;21069467;28;20223;-72
2022/06/12 10:41:08;;;;;;;1.38;0.50;;;;;;;;;;21047216;28;20786;-69
2022/06/12 10:51:16;;;;;;;1.10;0.50;;;;;;;;;;21062891;28;20312;-70
2022/06/12 11:01:27;;;;;;;1.55;0.63;;;28.60;99.90;;;;;;21067378;28;20208;-69
2022/06/12 11:11:52;;;;;;;2.17;0.70;;;;;;;;;;21069001;28;20199;-69
2022/06/12 11:22:09;;;;;;;1.15;0.60;;;;;;;;;;21058030;28;20289;-70
2022/06/12 11:32:26;;;;;;;2.13;0.55;;;28.60;96.20;;;;;;21066567;28;20215;-72
2022/06/12 11:42:31;;;;;;;1.15;0.50;;;;;;;;;;21063244;28;20218;-72
2022/06/12 11:52:42;;;;;;;1.15;0.60;;;;;;;;;;21068513;28;20536;-71
2022/06/12 12:02:50;;;;;;;3.20;1.33;;;;;;;;;;21063547;28;20284;-74
2022/06/12 12:12:56;;;;;;;1.95;0.47;;;;;;;;;;20922690;28;20225;-74
2022/06/12 12:23:00;;;;;;;1.48;0.60;;;;;;;;;;20880044;28;20288;-74
2022/06/12 12:33:13;;;;;;;3.78;1.27;;;28.30;99.90;;;;;;20882664;28;20287;-69
2022/06/12 12:43:15;;;;;;;0.60;0.50;;;;;;;;;;20860103;28;20260;-69
2022/06/12 12:53:29;;;;;;;1.10;0.55;;;;;;;;;;20882607;28;20210;-71
2022/06/12 13:03:31;;;;;;;0.52;0.43;;;;;;;;;;20832513;28;20244;-71
2022/06/12 13:13:43;;;;;;;0.90;0.50;;;30.20;87.10;;;;;;20838971;28;20218;-72
2022/06/12 13:23:48;;;;;;;1.15;0.50;;;;;;;;;;20871130;28;20200;-72
2022/06/12 13:33:55;;;;;;;0.98;0.60;;;29.00;99.90;;;;;;20886672;28;20295;-71
2022/06/12 13:43:57;;;;;;;1.30;0.70;;;;;;;;;;20823871;28;20763;-71
2022/06/12 13:54:02;;;;;;;2.58;0.70;;;;;;;;;;20872398;28;20612;-72
2022/06/12 14:04:05;;;;;;;0.90;0.63;;;;;;;;;;20896440;22;20263;-70
2022/06/12 14:14:35;;;;;;;1.98;0.40;;;29.80;87.00;;;;;;20864144;28;20280;-71
2022/06/12 14:24:37;;;;;;;1.80;0.65;;;;;;;;;;20871221;28;20578;-70
2022/06/12 14:34:41;;;;;;;1.77;0.50;;;;;;;;;;20809125;28;20709;-69
2022/06/12 14:44:43;;;;;;;0.47;0.38;;;;;;;;;;20838386;28;20222;-69
2022/06/12 14:54:46;;;;;;;0.93;0.38;;;;;;;;;;20826863;28;20280;-71
2022/06/12 15:04:48;;;;;;;1.52;0.50;;;30.40;85.40;;;;;;20778819;28;20260;-69
2022/06/12 15:14:50;;;;;;;1.38;0.30;;;;;;;;;;20815513;28;20265;-69
2022/06/12 15:24:52;;;;;;;0.50;0.43;;;;;;;;;;20803533;28;20265;-69
2022/06/12 15:34:55;;;;;;;0.77;0.30;;;30.50;81.90;;;;;;20727427;28;20269;-69
2022/06/12 15:44:57;;;;;;;0.90;0.40;;;;;;;;;;20746509;28;20203;-70
2022/06/12 15:54:59;;;;;;;0.40;0.25;;;;;;;;;;20721208;28;20846;-70
2022/06/12 16:05:02;;;;;;;1.10;0.40;;;;;;;;;;20741632;28;20698;-72
2022/06/12 16:15:04;;;;;;;0.68;0.57;;;;;;;;;;20741987;28;20219;-69
2022/06/12 16:25:06;;;;;;;1.63;0.40;;;;;;;;;;20748579;28;20223;-71
2022/06/12 16:35:11;;;;;;;0.73;0.43;;;30.50;79.30;;;;;;20801484;28;20214;-70
2022/06/12 16:45:13;;;;;;;0.65;0.40;;;;;;;;;;20818390;28;20953;-70
2022/06/12 16:55:16;;;;;;;0.50;0.30;;;;;;;;;;20817883;28;20578;-70
2022/06/12 17:05:17;;;;;;;0.60;0.30;;;;;;;;;;20774798;28;20215;-70
2022/06/12 17:15:21;;;;;;;0.30;0.22;;;;;;;;;;20735262;28;20277;-71
2022/06/12 17:25:23;;;;;;;0.20;0.20;;;;;;;;;;20755072;28;20257;-69
2022/06/12 17:35:25;;;;;;;0.95;0.55;;;;;;;;;;20738361;28;20598;-69
2022/06/12 17:45:27;;;;;;;1.75;0.30;;;29.00;86.90;;;;;;20871821;28;20279;-69
2022/06/12 17:55:29;;;;;;;0.60;0.40;;;;;;;;;;20820327;28;20576;-69
2022/06/12 18:05:31;;;;;;;0.65;0.40;;;;;;;;;;20798770;28;20230;-69
2022/06/12 18:25:53;;;;;;;0.80;0.30;;;;;;;;;;20736112;28;20265;-68
2022/06/12 18:35:55;;;;;;;0.85;0.30;;;;;;;;;;20736335;28;20211;-68
2022/06/12 18:45:58;;;;;;;0.90;0.35;;;28.20;86.20;;;;;;20734813;28;20219;-69
2022/06/12 18:56:01;;;;;;;0.63;0.32;;;28.30;85.50;;;;;;20731352;28;20283;-68
2022/06/12 19:06:04;;;;;;;0.93;0.40;;;;;;;;;;20737788;28;20249;-68
2022/06/12 19:16:06;;;;;;;0.68;0.50;;;27.90;84.70;;;;;;20818536;28;20218;-68
2022/06/12 19:26:09;;;;;;;0.40;0.30;;;;;;;;;;20750830;28;20225;-67
2022/06/12 19:36:10;;;;;;;0.50;0.30;;;;;;;;;;20772373;28;20282;-68
2022/06/12 19:46:12;;;;;;;0.90;0.30;;;;;;;;;;20723073;28;20230;-69
2022/06/12 19:56:15;;;;;;;0.50;0.30;;;;;;;;;;20876558;28;20293;-71
2022/06/12 20:16:37;;;;;;;0.63;0.40;;;;;;;;;;20841150;28;20225;-70
2022/06/12 20:26:39;;;;;;;0.38;0.30;;;26.90;84.10;;;;;;20817186;28;20230;-69
2022/06/12 20:36:43;;;;;;;1.92;0.30;;;;;;;;;;20827247;28;20267;-69
2022/06/12 20:46:48;;;;;;;1.85;0.30;;;;;;;;;;20826498;28;20525;-70
2022/06/12 20:56:50;;;;;;;1.00;0.43;;;;;;;;;;20827575;28;20609;-69
2022/06/12 21:06:52;;;;;;;1.00;0.30;;;;;;;;;;20794246;28;20299;-70
2022/06/12 21:16:54;;;;;;;0.47;0.30;;;;;;;;;;20827397;28;20632;-69
2022/06/12 21:26:55;;;;;;;1.13;0.38;;;;;;;;;;20806572;28;20259;-70
2022/06/12 21:36:58;;;;;;;0.95;0.35;;;;;;;;;;20805736;28;20295;-69
2022/06/12 21:47:00;;;;;;;0.75;0.40;;;;;;;;;;20724977;28;20222;-69
2022/06/12 21:57:08;;;;;;;1.10;0.47;;;26.10;90.50;;;;;;20747030;28;20280;-69
2022/06/12 22:07:14;;;;;;;1.50;0.60;;;25.90;95.40;;;;;;20776979;28;20776;-70
2022/06/12 22:17:18;;;;;;;0.50;0.28;;;;;;;;;;20822486;28;20234;-69
2022/06/12 22:27:21;;;;;;;2.60;0.45;;;;;;;;;;20821130;28;20249;-69
2022/06/12 22:37:24;;;;;;;0.88;0.30;;;;;;;;;;20808816;28;20673;-69
2022/06/12 22:47:26;;;;;;;0.85;0.30;;;;;;;;;;20821164;28;20222;-69
2022/06/12 22:57:28;;;;;;;0.30;0.20;;;;;;;;;;20820242;28;20287;-69
2022/06/12 23:07:30;;;;;;;1.80;0.32;;;;;;;;;;20810545;28;20653;-69
2022/06/12 23:17:32;;;;;;;2.15;0.80;;;24.20;97.20;;;;;;20802386;28;20221;-69
2022/06/12 23:27:34;;;;;;;1.45;0.35;;;;;;;;;;20801977;28;20254;-69
2022/06/12 23:37:35;;;;;;;1.00;0.47;;;;;;;;;;20791942;28;20571;-69
2022/06/12 23:47:37;;;;;;;1.35;0.50;;;;;;;;;;20819591;28;20209;-69
2022/06/12 23:57:39;;;;;;;1.20;0.60;;;;;;;;;;20832632;28;20299;-69
